Time;durP1;ratioP1;P1;durP2;ratioP2;P2;SDS_P1;SDS_P2;PMS_P1;PMS_P2;Temp;Humidity;BMP_temperature;BMP_pressure;BME280_temperature;BME280_humidity;BME280_pressure;Samples;Min_cycle;Max_cycle;Signal;HPM_P1;HPM_P2
2023/10/27 00:00:07;;;;;;;30.10;21.92;;;12.90;99.90;;;;;;5033283;28;20556;-82
2023/10/27 00:02:48;;;;;;;36.88;29.17;;;12.90;99.90;;;;;;5032165;28;20312;-82
2023/10/27 00:05:16;;;;;;;31.23;20.27;;;12.90;99.90;;;;;;5006273;28;20264;-87
2023/10/27 00:07:52;;;;;;;25.33;20.33;;;12.90;99.90;;;;;;5032682;28;20217;-82
2023/10/27 00:10:19;;;;;;;80.60;59.45;;;12.90;99.90;;;;;;5011284;28;20324;-82
2023/10/27 00:12:47;;;;;;;84.13;60.13;;;12.90;99.90;;;;;;5041271;28;20223;-87
2023/10/27 00:15:20;;;;;;;32.40;23.40;;;12.90;99.90;;;;;;5051320;28;20481;-83
2023/10/27 00:17:47;;;;;;;35.87;27.40;;;12.90;99.90;;;;;;5011498;28;20249;-82
2023/10/27 00:20:17;;;;;;;25.95;17.80;;;12.90;99.90;;;;;;5037955;28;20474;-87
2023/10/27 00:22:46;;;;;;;54.47;37.28;;;13.00;99.90;;;;;;5051882;28;20228;-87
2023/10/27 00:25:16;;;;;;;59.70;44.35;;;13.00;99.90;;;;;;5052364;28;20260;-82
2023/10/27 00:27:48;;;;;;;46.45;32.97;;;13.00;99.90;;;;;;5051128;28;20227;-82
2023/10/27 00:30:24;;;;;;;55.83;37.38;;;13.00;99.90;;;;;;5052655;28;20236;-87
2023/10/27 00:32:53;;;;;;;59.13;42.00;;;13.00;99.90;;;;;;5042724;28;20335;-87
2023/10/27 00:35:20;;;;;;;53.88;38.78;;;13.00;99.90;;;;;;5051941;28;20311;-86
2023/10/27 00:37:57;;;;;;;44.28;29.65;;;13.00;99.90;;;;;;5031509;28;20606;-87
2023/10/27 00:40:27;;;;;;;39.50;24.92;;;13.00;99.90;;;;;;5046857;28;20225;-86
2023/10/27 00:43:02;;;;;;;32.23;22.70;;;13.00;99.90;;;;;;5032090;28;20579;-83
2023/10/27 00:45:33;;;;;;;30.40;19.83;;;13.00;99.90;;;;;;5045319;28;20477;-83
2023/10/27 00:48:02;;;;;;;25.33;18.30;;;13.00;99.90;;;;;;5014930;28;20241;-83
2023/10/27 00:50:30;;;;;;;31.93;21.40;;;13.00;99.90;;;;;;5029381;28;20557;-82
2023/10/27 00:52:59;;;;;;;27.80;19.20;;;12.90;99.90;;;;;;5036093;28;20475;-86
2023/10/27 00:55:26;;;;;;;26.10;18.77;;;12.90;99.90;;;;;;5012516;28;20483;-87
2023/10/27 00:57:55;;;;;;;52.23;34.97;;;12.90;99.90;;;;;;5040924;28;20626;-82
2023/10/27 01:00:31;;;;;;;35.37;22.80;;;12.90;99.90;;;;;;5055132;28;20471;-82
2023/10/27 01:03:07;;;;;;;29.05;21.35;;;12.90;99.90;;;;;;5055750;28;20542;-82
2023/10/27 01:05:34;;;;;;;34.13;23.90;;;12.90;99.90;;;;;;5054548;28;20231;-86
2023/10/27 01:08:07;;;;;;;58.00;41.93;;;12.90;99.90;;;;;;5036809;28;20229;-83
2023/10/27 01:10:36;;;;;;;78.00;49.50;;;12.80;99.90;;;;;;5035294;28;20467;-83
2023/10/27 01:13:35;;;;;;;46.70;33.13;;;12.80;99.90;;;;;;5036675;28;20476;-85
2023/10/27 01:16:16;;;;;;;42.33;29.60;;;12.80;99.90;;;;;;5028519;28;20243;-85
2023/10/27 01:19:00;;;;;;;31.77;20.67;;;12.90;99.90;;;;;;5017759;28;20480;-86
2023/10/27 01:21:29;;;;;;;31.70;20.30;;;12.90;99.90;;;;;;5033518;28;20468;-86
2023/10/27 01:24:38;;;;;;;64.78;45.60;;;12.90;99.90;;;;;;5040529;28;20514;-84
2023/10/27 01:27:32;;;;;;;38.07;25.30;;;12.90;99.90;;;;;;5003730;28;20259;-83
2023/10/27 01:30:06;;;;;;;37.40;23.10;;;12.90;99.90;;;;;;5005129;28;20473;-83
2023/10/27 01:32:46;;;;;;;57.33;36.92;;;12.90;99.90;;;;;;5008835;28;20571;-86
2023/10/27 01:35:22;;;;;;;48.07;32.30;;;12.90;99.90;;;;;;5024844;28;20289;-85
2023/10/27 01:37:49;;;;;;;51.92;33.20;;;12.90;99.90;;;;;;5055590;28;20466;-83
2023/10/27 01:40:16;;;;;;;68.63;45.45;;;12.90;99.90;;;;;;5054398;28;20613;-83
2023/10/27 01:42:46;;;;;;;48.30;29.88;;;12.90;99.90;;;;;;5054532;28;20228;-83
2023/10/27 01:45:17;;;;;;;37.10;22.13;;;12.90;99.90;;;;;;5053342;28;20742;-86
2023/10/27 01:48:14;;;;;;;54.42;31.95;;;12.90;99.90;;;;;;5039157;28;20472;-85
2023/10/27 01:50:44;;;;;;;50.80;31.75;;;12.90;99.90;;;;;;5026524;28;20559;-86
2023/10/27 01:53:22;;;;;;;36.13;22.92;;;12.90;99.90;;;;;;5034899;28;20695;-85
2023/10/27 01:55:52;;;;;;;49.17;32.53;;;12.90;99.90;;;;;;5034880;28;20254;-83
2023/10/27 01:58:27;;;;;;;55.58;36.05;;;12.80;99.90;;;;;;5046365;28;20221;-86
2023/10/27 02:01:12;;;;;;;35.95;23.73;;;12.90;99.90;;;;;;5035903;28;20224;-84
2023/10/27 02:03:39;;;;;;;66.05;41.95;;;12.90;99.90;;;;;;5046955;28;20232;-86
2023/10/27 02:06:08;;;;;;;49.97;29.30;;;12.80;99.90;;;;;;5051081;28;20224;-86
2023/10/27 02:08:38;;;;;;;57.33;34.88;;;12.80;99.90;;;;;;5053463;28;20562;-85
2023/10/27 02:11:10;;;;;;;36.40;21.35;;;12.80;99.90;;;;;;5032009;28;20690;-86
2023/10/27 02:13:49;;;;;;;38.63;22.70;;;12.80;99.90;;;;;;5055363;28;20225;-82
2023/10/27 02:16:21;;;;;;;43.78;25.85;;;12.80;99.90;;;;;;5042916;28;20235;-83
2023/10/27 02:18:53;;;;;;;53.70;35.07;;;12.90;99.90;;;;;;5054290;28;20623;-86
2023/10/27 02:21:26;;;;;;;36.97;23.55;;;12.80;99.90;;;;;;5054054;28;20791;-83
2023/10/27 02:24:01;;;;;;;40.30;23.55;;;12.80;99.90;;;;;;5054906;28;20221;-83
2023/10/27 02:26:41;;;;;;;42.38;23.33;;;12.80;99.90;;;;;;5026494;28;20224;-86
2023/10/27 02:29:33;;;;;;;37.70;21.80;;;12.90;99.90;;;;;;5052523;28;20260;-86
2023/10/27 02:32:01;;;;;;;38.45;22.60;;;12.80;99.90;;;;;;5047444;28;20694;-82
2023/10/27 02:34:32;;;;;;;32.60;19.27;;;12.90;99.90;;;;;;5034014;28;20296;-86
2023/10/27 02:37:11;;;;;;;39.22;21.80;;;12.90;99.90;;;;;;5035677;28;20468;-83
2023/10/27 02:39:39;;;;;;;30.35;19.27;;;12.90;99.90;;;;;;5034897;28;20560;-83
2023/10/27 02:42:09;;;;;;;32.55;21.52;;;12.80;99.90;;;;;;5037226;28;20229;-83
2023/10/27 02:44:37;;;;;;;35.55;23.25;;;12.80;99.90;;;;;;5033737;28;20230;-85
2023/10/27 02:47:08;;;;;;;33.50;20.90;;;12.80;99.90;;;;;;5030507;28;20230;-82
2023/10/27 02:49:41;;;;;;;43.17;28.27;;;12.80;99.90;;;;;;5026047;28;20472;-83
2023/10/27 02:52:08;;;;;;;32.15;20.30;;;12.80;99.90;;;;;;5034883;28;20233;-85
2023/10/27 02:54:35;;;;;;;27.75;19.40;;;12.80;99.90;;;;;;5035229;28;20322;-85
2023/10/27 02:57:02;;;;;;;28.58;19.58;;;12.80;99.90;;;;;;5019734;28;20252;-85
2023/10/27 02:59:29;;;;;;;27.15;17.58;;;12.80;99.90;;;;;;5003551;28;20230;-84
2023/10/27 03:01:58;;;;;;;24.75;17.02;;;12.80;99.90;;;;;;5027404;28;20597;-85
2023/10/27 03:04:27;;;;;;;26.35;18.20;;;12.80;99.90;;;;;;5035008;28;20245;-81
2023/10/27 03:07:00;;;;;;;26.73;16.75;;;12.80;99.90;;;;;;5024980;28;20236;-82
2023/10/27 03:09:30;;;;;;;33.57;19.93;;;12.90;99.90;;;;;;5033406;28;20221;-82
2023/10/27 03:11:57;;;;;;;26.00;16.50;;;12.90;99.90;;;;;;5035601;28;20456;-82
2023/10/27 03:14:24;;;;;;;25.35;17.33;;;12.80;99.90;;;;;;5034661;28;20221;-85
2023/10/27 03:16:51;;;;;;;21.92;15.27;;;12.90;99.90;;;;;;5033593;28;20225;-85
2023/10/27 03:19:20;;;;;;;27.48;17.30;;;12.90;99.90;;;;;;5034576;28;20300;-82
2023/10/27 03:21:50;;;;;;;24.67;18.20;;;12.90;99.90;;;;;;5031052;28;20268;-85
2023/10/27 03:24:17;;;;;;;24.45;16.10;;;12.90;99.90;;;;;;5033881;28;20217;-82
2023/10/27 03:26:44;;;;;;;23.52;17.10;;;12.90;99.90;;;;;;5034214;28;20236;-82
2023/10/27 03:29:12;;;;;;;27.15;19.02;;;12.90;99.90;;;;;;5019280;28;20750;-85
2023/10/27 03:31:44;;;;;;;23.80;16.70;;;12.90;99.90;;;;;;5021471;28;20255;-85
2023/10/27 03:34:12;;;;;;;22.13;16.48;;;12.90;99.90;;;;;;5015417;28;20564;-81
2023/10/27 03:36:43;;;;;;;25.95;18.35;;;12.90;99.90;;;;;;5034469;28;20710;-84
2023/10/27 03:39:14;;;;;;;25.40;17.00;;;12.90;99.90;;;;;;5033337;28;20225;-86
2023/10/27 03:41:47;;;;;;;24.23;17.40;;;12.90;99.90;;;;;;5015226;28;20485;-82
2023/10/27 03:44:14;;;;;;;24.08;16.58;;;12.90;99.90;;;;;;5012586;28;20222;-85
2023/10/27 03:46:43;;;;;;;24.63;17.95;;;12.90;99.90;;;;;;5013179;28;20289;-82
2023/10/27 03:49:18;;;;;;;23.25;17.10;;;12.80;99.90;;;;;;5013645;28;20284;-85
2023/10/27 03:51:50;;;;;;;23.63;18.55;;;12.80;99.90;;;;;;5000453;28;20217;-82
2023/10/27 03:54:33;;;;;;;22.00;17.52;;;12.80;99.90;;;;;;5013523;28;20305;-82
2023/10/27 03:57:01;;;;;;;22.48;17.73;;;12.80;99.90;;;;;;4966709;28;20230;-85
2023/10/27 03:59:29;;;;;;;22.47;16.67;;;12.80;99.90;;;;;;5010295;28;20226;-85
2023/10/27 04:02:01;;;;;;;27.08;17.45;;;12.90;99.90;;;;;;5003267;28;20567;-83
2023/10/27 04:04:35;;;;;;;22.75;17.70;;;12.90;99.90;;;;;;5015458;28;20221;-83
2023/10/27 04:07:15;;;;;;;22.00;16.50;;;12.90;99.90;;;;;;5014903;28;20225;-86
2023/10/27 04:09:42;;;;;;;29.13;18.83;;;12.90;99.90;;;;;;4989669;28;20230;-86
2023/10/27 04:12:13;;;;;;;22.00;17.83;;;12.80;99.90;;;;;;5006443;28;20226;-82
2023/10/27 04:14:48;;;;;;;25.55;18.23;;;12.80;99.90;;;;;;5014909;28;20476;-85
2023/10/27 04:17:22;;;;;;;24.00;17.80;;;12.80;99.90;;;;;;5014724;28;20221;-82
2023/10/27 04:19:56;;;;;;;23.75;17.90;;;12.80;99.90;;;;;;4986631;28;20257;-84
2023/10/27 04:22:56;;;;;;;21.77;17.08;;;12.90;99.90;;;;;;5015039;28;20241;-85
2023/10/27 04:26:06;;;;;;;25.83;18.27;;;12.90;99.90;;;;;;4999407;28;20296;-82
2023/10/27 04:28:39;;;;;;;24.50;18.60;;;12.90;99.90;;;;;;4997808;28;20241;-85
2023/10/27 04:31:18;;;;;;;;;;;;;;;;;;;;;
2023/10/27 04:33:49;;;;;;;24.03;17.63;;;12.90;99.90;;;;;;5002184;28;20232;-83
2023/10/27 04:36:16;;;;;;;22.17;16.25;;;12.80;99.90;;;;;;5006077;28;20556;-86
2023/10/27 04:38:47;;;;;;;25.50;19.20;;;12.80;99.90;;;;;;5002213;28;20234;-82
2023/10/27 04:41:19;;;;;;;23.23;17.38;;;12.80;99.90;;;;;;5017088;28;20487;-83
2023/10/27 04:43:55;;;;;;;23.13;18.48;;;12.80;99.90;;;;;;5017673;28;20217;-83
2023/10/27 04:46:26;;;;;;;26.35;19.48;;;12.80;99.90;;;;;;4991640;28;20245;-83
2023/10/27 04:51:51;;;;;;;26.75;18.70;;;12.70;99.90;;;;;;4988100;28;20234;-82
2023/10/27 04:54:37;;;;;;;28.40;18.20;;;12.70;99.90;;;;;;5006866;28;20222;-86
2023/10/27 04:57:17;;;;;;;25.33;18.67;;;12.70;99.90;;;;;;5002931;28;20517;-85
2023/10/27 05:00:35;;;;;;;29.38;19.17;;;12.70;99.90;;;;;;5006032;28;20230;-82
2023/10/27 05:03:08;;;;;;;20.27;15.63;;;12.70;99.90;;;;;;4980542;28;20253;-83
2023/10/27 05:05:41;;;;;;;26.77;19.15;;;12.70;99.90;;;;;;5013193;28;20226;-87
2023/10/27 05:08:13;;;;;;;24.90;17.65;;;12.60;99.90;;;;;;5017511;28;20218;-83
2023/10/27 05:10:46;;;;;;;26.67;18.05;;;12.60;99.90;;;;;;5009043;28;20226;-83
2023/10/27 05:13:15;;;;;;;26.13;17.30;;;12.60;99.90;;;;;;5016515;28;20617;-84
2023/10/27 05:16:02;;;;;;;27.23;17.80;;;12.60;99.90;;;;;;5007732;28;20488;-81
2023/10/27 05:21:28;;;;;;;25.20;16.40;;;12.60;99.90;;;;;;4995391;28;20227;-83
2023/10/27 05:23:58;;;;;;;18.40;14.70;;;12.60;99.90;;;;;;4974627;28;20225;-87
2023/10/27 05:26:55;;;;;;;22.02;15.07;;;12.60;99.90;;;;;;4995220;28;20230;-82
2023/10/27 05:29:30;;;;;;;23.37;16.90;;;12.60;99.90;;;;;;5007574;28;20237;-82
2023/10/27 05:32:03;;;;;;;19.60;15.43;;;12.60;99.90;;;;;;5000684;28;20461;-86
2023/10/27 05:34:31;;;;;;;22.35;17.30;;;12.60;99.90;;;;;;4999549;28;20304;-81
2023/10/27 05:37:00;;;;;;;21.50;15.15;;;12.60;99.90;;;;;;5005969;28;20236;-86
2023/10/27 05:39:38;;;;;;;21.80;16.33;;;12.60;99.90;;;;;;5015151;28;20218;-81
2023/10/27 05:42:11;;;;;;;21.08;14.93;;;12.60;99.90;;;;;;5010150;28;20324;-85
2023/10/27 05:45:12;;;;;;;21.67;16.10;;;12.60;99.90;;;;;;5001670;28;20576;-86
2023/10/27 05:47:45;;;;;;;20.40;14.52;;;12.60;99.90;;;;;;4979725;28;20280;-86
2023/10/27 05:53:27;;;;;;;28.08;18.23;;;12.60;99.90;;;;;;4995992;28;20244;-82
2023/10/27 05:55:54;;;;;;;22.30;17.23;;;12.60;99.90;;;;;;4989899;28;20592;-83
2023/10/27 05:58:23;;;;;;;23.52;15.23;;;12.60;99.90;;;;;;4974648;28;20287;-86
2023/10/27 06:00:53;;;;;;;18.33;14.45;;;12.60;99.90;;;;;;4973645;28;20230;-83
2023/10/27 06:03:28;;;;;;;23.40;16.95;;;12.60;99.90;;;;;;4995222;28;20233;-86
2023/10/27 06:06:01;;;;;;;20.55;15.07;;;12.70;99.90;;;;;;4994855;28;20241;-85
2023/10/27 06:08:50;;;;;;;23.77;15.93;;;12.60;99.90;;;;;;4963279;28;20290;-83
2023/10/27 06:11:17;;;;;;;22.02;15.13;;;12.60;99.90;;;;;;4987008;28;20305;-82
2023/10/27 06:13:54;;;;;;;21.83;16.15;;;12.60;99.90;;;;;;4995048;28;20231;-82
2023/10/27 06:16:27;;;;;;;26.60;16.77;;;12.60;99.90;;;;;;4984444;28;20561;-82
2023/10/27 06:18:56;;;;;;;24.60;16.13;;;12.60;99.90;;;;;;4995402;28;20234;-86
2023/10/27 06:21:29;;;;;;;25.40;15.85;;;12.60;99.90;;;;;;4994983;28;20223;-83
2023/10/27 06:23:58;;;;;;;18.25;14.75;;;12.60;99.90;;;;;;4996828;28;20230;-86
2023/10/27 06:26:31;;;;;;;23.40;14.68;;;12.60;99.90;;;;;;4995073;28;20231;-82
2023/10/27 06:29:10;;;;;;;22.63;17.40;;;12.60;99.90;;;;;;4984318;28;20231;-86
2023/10/27 06:31:41;;;;;;;25.02;16.20;;;12.60;99.90;;;;;;4972129;28;20227;-83
2023/10/27 06:34:09;;;;;;;22.20;14.82;;;12.60;99.90;;;;;;4973546;28;20235;-83
2023/10/27 06:36:40;;;;;;;27.35;17.45;;;12.60;99.90;;;;;;4990209;28;20222;-83
2023/10/27 06:39:11;;;;;;;25.08;17.63;;;12.60;99.90;;;;;;4966713;28;20579;-83
2023/10/27 06:41:46;;;;;;;22.60;16.40;;;12.70;99.90;;;;;;4989622;28;20222;-86
2023/10/27 06:44:17;;;;;;;25.88;15.32;;;12.70;99.90;;;;;;4968000;28;20286;-86
2023/10/27 06:47:08;;;;;;;26.65;16.20;;;12.70;99.90;;;;;;4995543;28;20235;-86
2023/10/27 06:49:45;;;;;;;31.73;18.55;;;12.70;99.90;;;;;;4993264;28;20295;-82
2023/10/27 06:52:18;;;;;;;25.42;16.33;;;12.80;99.90;;;;;;4993056;28;21622;-82
2023/10/27 06:54:50;;;;;;;24.90;16.30;;;12.80;99.90;;;;;;4982959;28;20234;-85
2023/10/27 06:57:21;;;;;;;26.60;17.43;;;12.80;99.90;;;;;;5004710;28;20230;-82
2023/10/27 07:00:21;;;;;;;23.00;16.90;;;12.80;99.90;;;;;;5016100;28;20778;-85
2023/10/27 07:02:54;;;;;;;28.02;17.05;;;12.80;99.90;;;;;;5010964;28;20469;-86
2023/10/27 07:05:22;;;;;;;31.77;19.87;;;12.70;99.90;;;;;;5013539;28;20230;-85
2023/10/27 07:08:06;;;;;;;;;;;;;;;;;;;;;
2023/10/27 07:10:42;;;;;;;29.08;19.85;;;12.70;99.90;;;;;;4986093;28;20968;-85
2023/10/27 07:19:46;;;;;;;31.23;19.98;;;12.70;99.90;;;;;;4963237;28;20230;-82
2023/10/27 07:22:19;;;;;;;26.50;19.48;;;12.70;99.90;;;;;;4972972;28;20654;-82
2023/10/27 07:24:58;;;;;;;30.70;20.30;;;12.70;99.90;;;;;;4983990;28;20238;-82
2023/10/27 07:27:31;;;;;;;31.85;20.30;;;12.70;99.90;;;;;;4997561;28;20224;-82
2023/10/27 07:30:16;;;;;;;31.50;21.40;;;12.70;99.90;;;;;;4999414;28;20230;-87
2023/10/27 07:33:13;;;;;;;28.90;20.47;;;12.80;99.90;;;;;;4976255;28;20226;-85
2023/10/27 07:42:34;;;;;;;25.52;17.27;;;12.70;99.90;;;;;;4846607;29;20309;-83
2023/10/27 07:55:36;;;;;;;24.13;18.25;;;12.80;99.90;;;;;;4893740;29;20558;-82
2023/10/27 08:05:36;;;;;;;29.25;17.65;;;12.70;99.90;;;;;;4854844;29;20229;-83
2023/10/27 08:08:51;;;;;;;23.13;16.90;;;12.80;99.90;;;;;;4908526;29;20240;-82
2023/10/27 08:11:40;;;;;;;24.50;18.87;;;12.80;99.90;;;;;;4858997;29;20229;-83
2023/10/27 08:14:27;;;;;;;25.87;18.80;;;12.80;99.90;;;;;;4835374;29;20489;-83
2023/10/27 08:16:57;;;;;;;19.45;15.48;;;12.80;99.90;;;;;;4869809;29;20476;-83
2023/10/27 08:19:33;;;;;;;24.92;16.60;;;12.80;99.90;;;;;;4919240;29;20239;-82
2023/10/27 08:25:44;;;;;;;24.27;16.50;;;12.80;99.90;;;;;;4945806;28;20228;-83
2023/10/27 08:28:12;;;;;;;23.50;17.45;;;12.80;99.90;;;;;;4947112;28;20796;-83
2023/10/27 08:31:11;;;;;;;23.33;16.70;;;12.80;99.90;;;;;;5010366;28;20245;-86
2023/10/27 08:33:40;;;;;;;25.60;17.55;;;12.90;99.90;;;;;;4998404;28;20874;-86
2023/10/27 08:36:22;;;;;;;;;;;;;;;;;;;;;
2023/10/27 08:39:45;;;;;;;24.43;17.40;;;12.90;99.90;;;;;;4989653;28;20465;-82
2023/10/27 08:42:12;;;;;;;20.90;15.23;;;12.90;99.90;;;;;;5011650;28;20792;-82
2023/10/27 08:44:44;;;;;;;25.17;17.70;;;12.90;99.90;;;;;;5007798;28;20233;-86
2023/10/27 08:47:33;;;;;;;24.38;17.33;;;12.90;99.90;;;;;;5001629;28;20235;-85
2023/10/27 08:50:04;;;;;;;23.42;16.65;;;12.90;99.90;;;;;;5007253;28;20225;-84
2023/10/27 08:52:44;;;;;;;25.90;17.80;;;12.90;99.90;;;;;;4991272;28;20231;-85
2023/10/27 08:55:37;;;;;;;24.08;17.23;;;12.90;99.90;;;;;;5014803;28;20296;-85
2023/10/27 08:58:05;;;;;;;27.30;18.60;;;12.90;99.90;;;;;;5005305;28;20653;-85
2023/10/27 09:00:50;;;;;;;23.77;18.20;;;13.00;99.90;;;;;;4993089;28;20465;-85
2023/10/27 09:06:13;;;;;;;23.97;16.77;;;12.90;99.90;;;;;;4987938;28;20293;-86
2023/10/27 09:08:52;;;;;;;23.65;18.35;;;13.00;99.90;;;;;;5027505;28;20467;-83
2023/10/27 09:11:25;;;;;;;22.03;16.60;;;13.00;99.90;;;;;;5013780;28;20222;-83
2023/10/27 09:14:08;;;;;;;22.87;18.70;;;12.90;99.90;;;;;;5007769;28;20555;-86
2023/10/27 09:16:43;;;;;;;25.27;17.50;;;13.00;99.90;;;;;;4989646;28;20481;-85
2023/10/27 09:19:29;;;;;;;20.13;16.17;;;13.00;99.90;;;;;;5015160;28;20472;-83
2023/10/27 09:22:18;;;;;;;22.90;18.58;;;13.00;99.90;;;;;;5016990;28;20477;-85
2023/10/27 09:25:01;;;;;;;25.13;17.73;;;13.00;99.90;;;;;;5028331;28;20244;-83
2023/10/27 09:27:37;;;;;;;22.45;16.98;;;13.00;99.90;;;;;;5023307;28;20306;-84
2023/10/27 09:30:21;;;;;;;20.92;16.17;;;13.00;99.90;;;;;;5034495;28;20284;-83
2023/10/27 09:36:13;;;;;;;;;;;;;;;;;;;;;
2023/10/27 09:38:51;;;;;;;23.73;16.90;;;13.00;99.90;;;;;;5033864;28;20482;-87
2023/10/27 09:50:18;;;;;;;27.57;18.97;;;13.10;99.90;;;;;;5014653;28;20464;-85
2023/10/27 09:53:19;;;;;;;30.08;20.42;;;13.10;99.90;;;;;;5016131;28;20971;-86
2023/10/27 09:56:07;;;;;;;29.08;21.27;;;13.10;99.90;;;;;;4986387;28;20248;-85
2023/10/27 10:09:32;;;;;;;22.63;19.70;;;13.10;99.90;;;;;;5066405;28;21220;-85
2023/10/27 10:12:46;;;;;;;20.80;17.23;;;13.20;99.90;;;;;;5055126;28;20574;-84
2023/10/27 10:19:07;;;;;;;18.90;14.50;;;13.20;99.90;;;;;;5083468;28;20942;-85
2023/10/27 10:22:01;;;;;;;;;;;;;;;;;;;;;
2023/10/27 10:28:29;;;;;;;21.33;17.50;;;13.20;99.90;;;;;;5042336;28;20471;-85
2023/10/27 10:31:49;;;;;;;21.50;17.57;;;13.20;99.90;;;;;;5062280;28;20525;-83
2023/10/27 10:34:48;;;;;;;19.20;15.83;;;13.20;99.90;;;;;;5059166;28;20557;-83
2023/10/27 10:37:37;;;;;;;20.77;18.17;;;13.20;99.90;;;;;;5058883;28;20555;-86
2023/10/27 10:46:40;;;;;;;17.70;14.50;;;13.20;99.90;;;;;;5262822;22;20681;-84
2023/10/27 10:49:28;;;;;;;15.73;13.27;;;13.20;99.90;;;;;;5082067;28;20223;-85
2023/10/27 10:59:27;;;;;;;16.23;13.48;;;13.10;99.90;;;;;;5043724;28;20234;-85
2023/10/27 11:05:50;;;;;;;14.32;11.88;;;13.10;99.90;;;;;;5018858;28;20488;-84
2023/10/27 11:25:47;;;;;;;16.77;11.43;;;13.10;99.90;;;;;;4846830;29;20518;-85
2023/10/27 11:52:10;;;;;;;14.33;12.83;;;13.20;99.90;;;;;;4850653;29;20582;-85
2023/10/27 12:00:09;;;;;;;14.93;13.35;;;13.20;99.90;;;;;;5116229;22;20224;-84
2023/10/27 12:33:03;;;;;;;14.67;12.07;;;13.20;99.90;;;;;;5057373;28;20211;-86
2023/10/27 12:50:16;;;;;;;15.70;13.35;;;13.20;99.90;;;;;;4829244;29;20322;-85
2023/10/27 12:56:47;;;;;;;;;;;;;;;;;;;;;
2023/10/27 13:13:24;;;;;;;16.90;14.02;;;13.10;99.90;;;;;;4949950;28;20533;-86
2023/10/27 13:26:47;;;;;;;16.17;13.40;;;13.10;99.90;;;;;;5200679;22;20503;-86
2023/10/27 13:32:11;;;;;;;22.65;13.93;;;13.10;99.90;;;;;;5082462;28;20226;-83
2023/10/27 13:34:46;;;;;;;16.73;12.95;;;13.10;99.90;;;;;;5074373;28;20692;-86
2023/10/27 13:37:39;;;;;;;18.52;13.88;;;13.10;99.90;;;;;;5074733;28;20344;-86
2023/10/27 13:40:45;;;;;;;23.75;14.90;;;13.10;99.90;;;;;;5060402;28;20673;-85
2023/10/27 13:43:23;;;;;;;16.77;14.20;;;13.10;99.90;;;;;;5064552;28;20236;-85
2023/10/27 13:46:27;;;;;;;;;;;;;;;;;;;;;
2023/10/27 13:49:10;;;;;;;17.70;14.35;;;13.10;99.90;;;;;;5064160;28;20234;-83
2023/10/27 13:51:40;;;;;;;18.25;13.13;;;13.10;99.90;;;;;;5049188;28;20224;-84
2023/10/27 13:57:13;;;;;;;18.30;15.32;;;13.10;99.90;;;;;;5334803;22;20284;-85
2023/10/27 13:59:41;;;;;;;19.00;15.30;;;13.10;99.90;;;;;;5078427;28;20581;-85
2023/10/27 14:02:24;;;;;;;28.25;22.30;;;13.10;99.90;;;;;;5083117;28;20473;-82
2023/10/27 14:05:00;;;;;;;18.30;15.77;;;13.00;99.90;;;;;;5070321;28;20235;-83
2023/10/27 14:07:43;;;;;;;18.50;15.75;;;13.00;99.90;;;;;;5061810;28;20458;-84
2023/10/27 14:10:14;;;;;;;20.93;17.83;;;13.10;99.90;;;;;;5070072;28;20221;-82
2023/10/27 14:18:39;;;;;;;17.23;15.32;;;13.10;99.90;;;;;;5064325;28;20467;-80
2023/10/27 14:21:26;;;;;;;21.58;15.75;;;13.00;99.90;;;;;;5042576;28;20227;-81
2023/10/27 14:23:54;;;;;;;19.33;14.70;;;13.00;99.90;;;;;;5036294;28;20231;-81
2023/10/27 14:26:22;;;;;;;21.90;15.73;;;13.00;99.90;;;;;;5043593;28;20274;-81
2023/10/27 14:28:48;;;;;;;20.83;18.63;;;13.00;99.90;;;;;;5053160;28;20475;-80
2023/10/27 14:31:17;;;;;;;20.50;16.30;;;13.00;99.90;;;;;;5054305;28;20925;-81
2023/10/27 14:33:47;;;;;;;18.87;16.20;;;13.00;99.90;;;;;;5042993;28;20518;-87
2023/10/27 14:36:23;;;;;;;21.58;17.88;;;13.00;99.90;;;;;;5056417;28;20509;-89
2023/10/27 14:38:50;;;;;;;22.00;17.95;;;13.00;99.90;;;;;;5054691;28;20674;-87
2023/10/27 14:41:18;;;;;;;18.38;15.88;;;13.00;99.90;;;;;;5042987;28;20699;-82
2023/10/27 14:43:48;;;;;;;24.67;18.05;;;13.00;99.90;;;;;;5052362;28;20300;-82
2023/10/27 14:46:16;;;;;;;19.55;15.75;;;13.00;99.90;;;;;;5054013;28;20258;-81
2023/10/27 14:48:52;;;;;;;17.85;15.70;;;13.00;99.90;;;;;;5053321;28;20312;-81
2023/10/27 14:51:25;;;;;;;24.52;18.33;;;13.00;99.90;;;;;;5041604;28;20299;-81
2023/10/27 14:53:57;;;;;;;60.47;44.37;;;13.00;99.90;;;;;;5052785;28;20232;-80
2023/10/27 14:56:26;;;;;;;35.00;24.13;;;13.00;99.90;;;;;;5040128;28;20468;-80
2023/10/27 14:59:16;;;;;;;18.02;16.23;;;13.00;99.90;;;;;;5020422;28;20226;-81
2023/10/27 15:02:00;;;;;;;24.23;18.50;;;13.00;99.90;;;;;;5025829;28;20221;-81
2023/10/27 15:04:28;;;;;;;20.53;17.80;;;13.00;99.90;;;;;;4999649;28;20229;-82
2023/10/27 15:07:00;;;;;;;19.63;16.65;;;13.00;99.90;;;;;;5039461;28;20463;-80
2023/10/27 15:09:29;;;;;;;18.57;14.57;;;12.90;99.90;;;;;;5035090;28;20683;-83
2023/10/27 15:15:36;;;;;;;19.75;15.63;;;12.90;99.90;;;;;;4949521;28;20238;-83
2023/10/27 15:18:03;;;;;;;22.45;19.77;;;12.90;99.90;;;;;;4991093;28;20254;-86
2023/10/27 15:20:33;;;;;;;20.42;15.68;;;12.90;99.90;;;;;;5016750;28;20229;-87
2023/10/27 15:23:36;;;;;;;21.65;15.43;;;12.90;99.90;;;;;;5039996;28;20228;-82
2023/10/27 15:26:05;;;;;;;21.60;17.83;;;12.90;99.90;;;;;;5039401;28;20236;-86
2023/10/27 15:28:35;;;;;;;19.27;16.38;;;12.90;99.90;;;;;;5052736;28;20477;-87
2023/10/27 15:31:04;;;;;;;21.73;17.27;;;12.90;99.90;;;;;;5053278;28;20224;-87
2023/10/27 15:33:34;;;;;;;21.02;17.65;;;12.90;99.90;;;;;;5053683;28;20470;-87
2023/10/27 15:36:09;;;;;;;21.83;18.27;;;12.80;99.90;;;;;;5053810;28;20221;-87
2023/10/27 15:38:50;;;;;;;19.55;15.85;;;12.80;99.90;;;;;;5046081;28;20217;-88
2023/10/27 15:41:38;;;;;;;23.60;18.25;;;12.80;99.90;;;;;;5043741;28;20240;-88
2023/10/27 15:46:42;;;;;;;20.48;16.35;;;12.80;99.90;;;;;;5120298;22;20231;-87
2023/10/27 15:49:09;;;;;;;25.40;19.70;;;12.80;99.90;;;;;;5078581;28;20222;-87
2023/10/27 15:57:30;;;;;;;19.00;16.13;;;12.80;99.90;;;;;;5066810;28;20306;-89
2023/10/27 15:59:57;;;;;;;18.90;15.50;;;12.80;99.90;;;;;;5067484;28;20240;-88
2023/10/27 16:02:30;;;;;;;17.25;15.35;;;12.80;99.90;;;;;;5061292;28;20918;-88
2023/10/27 16:08:35;;;;;;;19.08;16.38;;;12.80;99.90;;;;;;5073014;28;20199;-87
2023/10/27 16:14:29;;;;;;;17.73;15.82;;;12.70;99.90;;;;;;4974480;28;20616;-81
2023/10/27 16:16:57;;;;;;;19.73;16.25;;;12.70;99.90;;;;;;5011853;28;20643;-82
2023/10/27 16:20:03;;;;;;;20.58;18.48;;;12.70;99.90;;;;;;4991083;28;20227;-81
2023/10/27 16:22:32;;;;;;;18.92;16.80;;;12.70;99.90;;;;;;4956990;28;20223;-82
2023/10/27 16:24:59;;;;;;;19.45;16.25;;;12.70;99.90;;;;;;4993178;28;20249;-82
2023/10/27 16:28:07;;;;;;;17.95;15.30;;;12.70;99.90;;;;;;5014853;28;20226;-82
2023/10/27 16:30:36;;;;;;;24.65;19.10;;;12.70;99.90;;;;;;5007635;28;20238;-88
2023/10/27 16:33:04;;;;;;;18.75;16.73;;;12.60;99.90;;;;;;5015389;28;20328;-87
2023/10/27 16:35:36;;;;;;;23.25;18.80;;;12.60;99.90;;;;;;5056938;28;20692;-87
2023/10/27 16:38:09;;;;;;;20.30;16.77;;;12.60;99.90;;;;;;5076443;28;20220;-86
2023/10/27 16:41:20;;;;;;;21.38;17.15;;;12.60;99.90;;;;;;5065138;28;20231;-88
2023/10/27 16:43:48;;;;;;;15.88;14.18;;;12.60;99.90;;;;;;5076198;28;20310;-87
2023/10/27 16:46:23;;;;;;;15.10;13.50;;;12.60;99.90;;;;;;5077852;28;20751;-88
2023/10/27 16:48:50;;;;;;;21.75;17.63;;;12.60;99.90;;;;;;5074870;28;20288;-82
2023/10/27 16:51:19;;;;;;;20.55;17.58;;;12.60;99.90;;;;;;5075552;28;20731;-82
2023/10/27 16:53:58;;;;;;;17.55;15.32;;;12.60;99.90;;;;;;5075539;28;20300;-82
2023/10/27 16:56:25;;;;;;;23.17;19.33;;;12.60;99.90;;;;;;5076068;28;20750;-88
2023/10/27 16:59:27;;;;;;;22.40;16.55;;;12.60;99.90;;;;;;5075515;28;20228;-88
2023/10/27 17:01:55;;;;;;;23.83;20.40;;;12.60;99.90;;;;;;5025326;28;20217;-87
2023/10/27 17:04:29;;;;;;;21.92;17.67;;;12.50;99.90;;;;;;5057922;28;20224;-87
2023/10/27 17:06:58;;;;;;;23.77;19.25;;;12.50;99.90;;;;;;5050565;28;20224;-86
2023/10/27 17:12:17;;;;;;;18.10;16.17;;;12.50;99.90;;;;;;5078278;28;20224;-88
2023/10/27 17:14:48;;;;;;;36.78;27.17;;;12.50;99.90;;;;;;5075401;28;20303;-89
2023/10/27 17:17:25;;;;;;;20.65;16.25;;;12.50;99.90;;;;;;5082946;28;20243;-87
2023/10/27 17:19:53;;;;;;;21.52;18.05;;;12.50;99.90;;;;;;5085608;28;20676;-82
2023/10/27 17:22:20;;;;;;;18.48;15.35;;;12.50;99.90;;;;;;5083966;28;20295;-88
2023/10/27 17:24:55;;;;;;;19.65;15.95;;;12.50;99.90;;;;;;5073019;28;20248;-82
2023/10/27 17:27:24;;;;;;;16.13;14.32;;;12.50;99.90;;;;;;5065052;28;20243;-82